createdAt,value
2023-05-05T00:00:51.773Z,4.47
2023-05-05T00:01:49.151Z,4.39
2023-05-05T00:02:46.789Z,4.45
2023-05-05T00:03:44.185Z,4.48
2023-05-05T00:04:41.565Z,4.39
2023-05-05T00:05:38.915Z,5.13
2023-05-05T00:06:36.289Z,5.16
2023-05-05T00:07:33.704Z,5.12
2023-05-05T00:08:31.223Z,5.34
2023-05-05T00:09:28.653Z,5.43
2023-05-05T00:10:25.982Z,4.80
2023-05-05T00:11:23.477Z,5.22
2023-05-05T00:12:20.832Z,5.29
2023-05-05T00:13:18.547Z,5.65
2023-05-05T00:14:16.477Z,5.47
2023-05-05T00:15:13.949Z,5.21
2023-05-05T00:16:11.400Z,5.28
2023-05-05T00:17:08.853Z,5.36
2023-05-05T00:18:06.209Z,6.39
2023-05-05T00:19:03.543Z,6.10
2023-05-05T00:20:00.954Z,6.10
2023-05-05T00:20:58.275Z,6.30
2023-05-05T00:21:55.706Z,6.46
2023-05-05T00:22:53.090Z,6.11
2023-05-05T00:23:50.396Z,6.93
2023-05-05T00:24:47.711Z,6.61
2023-05-05T00:25:45.083Z,6.93
2023-05-05T00:26:42.393Z,6.82
2023-05-05T00:27:40.913Z,7.14
2023-05-05T00:28:38.382Z,7.19
2023-05-05T00:29:35.687Z,6.79
2023-05-05T00:30:33.583Z,6.97
2023-05-05T00:31:30.988Z,7.59
2023-05-05T00:32:28.392Z,7.11
2023-05-05T00:33:25.948Z,7.35
2023-05-05T00:34:23.399Z,6.49
2023-05-05T00:35:20.768Z,6.60
2023-05-05T00:36:18.521Z,6.87
2023-05-05T00:37:15.952Z,7.09
2023-05-05T00:38:13.338Z,7.33
2023-05-05T00:39:10.932Z,6.81
2023-05-05T00:40:08.918Z,6.90
2023-05-05T00:41:06.395Z,6.91
2023-05-05T00:42:03.703Z,7.13
2023-05-05T00:43:01.095Z,7.27
2023-05-05T00:43:58.492Z,6.78
2023-05-05T00:44:56.274Z,7.03
2023-05-05T00:46:01.969Z,7.58
2023-05-05T00:46:59.409Z,7.27
2023-05-05T00:48:00.668Z,7.15
2023-05-05T00:48:58.213Z,7.42
2023-05-05T00:49:55.891Z,7.32
2023-05-05T00:50:53.461Z,8.27
2023-05-05T00:51:50.900Z,8.17
2023-05-05T00:52:48.477Z,8.28
2023-05-05T00:53:46.114Z,7.75
2023-05-05T00:54:43.928Z,7.89
2023-05-05T00:55:41.677Z,7.55
2023-05-05T00:56:39.105Z,7.74
2023-05-05T00:57:36.561Z,7.58
2023-05-05T00:58:33.953Z,7.42
2023-05-05T00:59:33.256Z,7.25
2023-05-05T01:00:31.550Z,6.95
2023-05-05T01:01:28.945Z,6.39
2023-05-05T01:02:26.519Z,6.61
2023-05-05T01:03:23.923Z,7.17
2023-05-05T01:04:21.462Z,6.98
2023-05-05T01:05:20.821Z,6.64
2023-05-05T01:06:30.134Z,6.59
2023-05-05T01:07:45.135Z,6.38
2023-05-05T01:09:02.173Z,5.57
2023-05-05T01:10:19.600Z,6.59
2023-05-05T01:11:26.805Z,5.84
2023-05-05T01:12:24.094Z,5.34
2023-05-05T01:13:21.766Z,5.41
2023-05-05T01:14:24.396Z,5.29
2023-05-05T01:15:21.924Z,5.26
2023-05-05T01:16:25.096Z,5.31
2023-05-05T01:17:30.802Z,5.15
2023-05-05T01:18:40.077Z,4.86
2023-05-05T01:19:49.296Z,4.87
2023-05-05T01:20:57.199Z,4.89
2023-05-05T01:22:02.793Z,4.88
2023-05-05T01:23:04.268Z,5.04
2023-05-05T01:24:19.679Z,4.78
2023-05-05T01:25:35.630Z,5.04
2023-05-05T01:26:45.219Z,4.38
2023-05-05T01:27:55.767Z,4.69
2023-05-05T01:28:55.905Z,4.92
2023-05-05T01:30:11.801Z,4.85
2023-05-05T01:31:15.751Z,5.47
2023-05-05T01:32:15.017Z,5.48
2023-05-05T01:33:15.675Z,5.11
2023-05-05T01:34:16.969Z,5.32
2023-05-05T01:35:28.876Z,5.37
2023-05-05T01:36:28.822Z,5.85
2023-05-05T01:37:49.000Z,5.78
2023-05-05T01:38:47.518Z,5.62
2023-05-05T01:39:49.863Z,5.94
2023-05-05T01:40:50.368Z,5.38
2023-05-05T01:41:50.717Z,5.48
2023-05-05T01:42:50.320Z,5.29
2023-05-05T01:43:50.456Z,5.91
2023-05-05T01:44:49.021Z,5.50
2023-05-05T01:45:49.004Z,5.04
2023-05-05T01:46:48.274Z,5.53
2023-05-05T01:47:47.074Z,5.36
2023-05-05T01:48:45.917Z,5.39
2023-05-05T01:49:44.899Z,5.36
2023-05-05T01:50:44.116Z,5.73
2023-05-05T01:51:42.330Z,5.59
2023-05-05T01:52:41.376Z,5.56
2023-05-05T01:53:39.740Z,5.94
2023-05-05T01:54:39.952Z,6.07
2023-05-05T01:55:39.512Z,5.69
2023-05-05T01:56:41.218Z,5.61
2023-05-05T01:57:41.073Z,5.69
2023-05-05T01:58:41.791Z,5.72
2023-05-05T01:59:39.801Z,5.65
2023-05-05T02:00:38.632Z,6.10
2023-05-05T02:01:38.800Z,5.95
2023-05-05T02:02:37.947Z,5.84
2023-05-05T02:03:37.455Z,6.04
2023-05-05T02:04:37.551Z,5.51
2023-05-05T02:05:37.170Z,5.87
2023-05-05T02:06:35.727Z,6.16
2023-05-05T02:07:35.130Z,5.51
2023-05-05T02:08:34.778Z,6.15
2023-05-05T02:09:32.676Z,6.50
2023-05-05T02:10:30.601Z,6.17
2023-05-05T02:11:29.463Z,6.35
2023-05-05T02:12:28.915Z,6.09
2023-05-05T02:13:29.958Z,6.18
2023-05-05T02:14:29.420Z,6.19
2023-05-05T02:15:28.179Z,6.18
2023-05-05T02:16:26.340Z,5.97
2023-05-05T02:17:25.873Z,6.61
2023-05-05T02:18:25.094Z,6.12
2023-05-05T02:19:24.430Z,6.30
2023-05-05T02:20:22.626Z,6.29
2023-05-05T02:21:20.979Z,6.12
2023-05-05T02:22:18.528Z,6.22
2023-05-05T02:23:15.985Z,5.95
2023-05-05T02:24:13.541Z,5.27
2023-05-05T02:25:11.269Z,5.59
2023-05-05T02:26:11.505Z,5.68
2023-05-05T02:27:11.257Z,5.52
2023-05-05T02:28:13.421Z,5.77
2023-05-05T02:29:16.212Z,5.00
2023-05-05T02:30:16.991Z,5.35
2023-05-05T02:31:16.472Z,4.84
2023-05-05T02:32:34.942Z,4.95
2023-05-05T02:33:34.124Z,4.75
2023-05-05T02:34:35.581Z,5.14
2023-05-05T02:35:38.386Z,4.97
2023-05-05T02:36:38.197Z,4.88
2023-05-05T02:37:36.967Z,4.39
2023-05-05T02:38:37.575Z,4.37
2023-05-05T02:39:37.885Z,4.34
2023-05-05T02:40:37.661Z,4.48
2023-05-05T02:41:38.330Z,4.10
2023-05-05T02:42:38.703Z,4.24
2023-05-05T02:43:40.456Z,4.24
2023-05-05T02:44:41.479Z,4.18
2023-05-05T02:45:39.012Z,4.49
2023-05-05T02:46:38.652Z,4.02
2023-05-05T02:47:36.779Z,3.85
2023-05-05T02:48:34.171Z,4.28
2023-05-05T02:49:31.458Z,4.30
2023-05-05T02:50:28.846Z,3.80
2023-05-05T02:51:26.302Z,4.25
2023-05-05T02:52:23.674Z,4.33
2023-05-05T02:53:24.992Z,4.52
2023-05-05T02:54:22.556Z,3.94
2023-05-05T02:55:20.254Z,4.19
2023-05-05T02:56:39.536Z,4.24
2023-05-05T02:57:53.819Z,4.08
2023-05-05T02:58:59.880Z,4.35
2023-05-05T03:00:06.103Z,4.23
2023-05-05T03:01:16.114Z,3.74
2023-05-05T03:02:19.246Z,3.72
2023-05-05T03:03:37.010Z,3.56
2023-05-05T03:04:40.198Z,4.02
2023-05-05T03:05:43.922Z,4.27
2023-05-05T03:06:43.658Z,3.76
2023-05-05T03:07:47.958Z,4.29
2023-05-05T03:08:48.074Z,3.68
2023-05-05T03:09:57.942Z,3.65
2023-05-05T03:11:14.746Z,4.28
2023-05-05T03:12:17.439Z,3.89
2023-05-05T03:13:18.178Z,3.90
2023-05-05T03:14:18.425Z,4.15
2023-05-05T03:15:16.623Z,3.76
2023-05-05T03:16:18.335Z,3.84
2023-05-05T03:17:17.884Z,3.74
2023-05-05T03:18:18.254Z,3.65
2023-05-05T03:19:18.787Z,4.07
2023-05-05T03:20:16.836Z,3.76
2023-05-05T03:21:14.992Z,3.51
2023-05-05T03:22:12.956Z,3.03
2023-05-05T03:23:11.070Z,3.76
2023-05-05T03:24:12.483Z,3.57
2023-05-05T03:25:09.832Z,3.16
2023-05-05T03:26:07.192Z,3.17
2023-05-05T03:27:04.612Z,3.20
2023-05-05T03:28:01.912Z,3.36
2023-05-05T03:28:59.287Z,3.23
2023-05-05T03:29:56.623Z,3.46
2023-05-05T03:30:54.633Z,3.61
2023-05-05T03:31:52.185Z,3.76
2023-05-05T03:32:49.599Z,3.71
2023-05-05T03:33:46.963Z,3.72
2023-05-05T03:34:44.363Z,4.07
2023-05-05T03:35:41.775Z,3.54
2023-05-05T03:36:39.515Z,3.33
2023-05-05T03:37:36.849Z,3.87
2023-05-05T03:38:34.268Z,3.49
2023-05-05T03:39:31.721Z,3.55
2023-05-05T03:40:40.443Z,3.13
2023-05-05T03:41:40.886Z,3.57
2023-05-05T03:42:38.257Z,3.63
2023-05-05T03:43:35.623Z,3.87
2023-05-05T03:44:33.139Z,3.87
2023-05-05T03:45:30.594Z,3.97
2023-05-05T03:46:28.003Z,4.93
2023-05-05T03:47:25.376Z,4.85
2023-05-05T03:48:22.717Z,4.61
2023-05-05T03:49:20.034Z,4.23
2023-05-05T03:50:17.566Z,4.13
2023-05-05T03:51:15.104Z,3.75
2023-05-05T03:52:13.836Z,3.98
2023-05-05T03:53:12.362Z,4.66
2023-05-05T03:54:09.892Z,5.34
2023-05-05T03:55:07.549Z,4.67
2023-05-05T03:56:05.260Z,4.34
2023-05-05T03:57:02.875Z,4.46
2023-05-05T03:58:00.192Z,4.29
2023-05-05T03:58:57.466Z,4.28
2023-05-05T03:59:54.914Z,4.45
2023-05-05T04:00:52.359Z,4.54
2023-05-05T04:01:50.072Z,4.31
2023-05-05T04:02:47.449Z,4.43
2023-05-05T04:03:44.947Z,4.45
2023-05-05T04:04:42.630Z,4.25
2023-05-05T04:05:40.013Z,4.21
2023-05-05T04:06:37.361Z,4.44
2023-05-05T04:07:34.744Z,4.29
2023-05-05T04:08:32.083Z,4.59
2023-05-05T04:09:29.428Z,4.07
2023-05-05T04:10:26.801Z,3.67
2023-05-05T04:11:24.084Z,4.23
2023-05-05T04:12:21.536Z,4.34
2023-05-05T04:13:18.973Z,3.84
2023-05-05T04:14:16.407Z,3.90
2023-05-05T04:15:13.730Z,4.29
2023-05-05T04:16:11.104Z,4.31
2023-05-05T04:17:08.508Z,4.30
2023-05-05T04:18:05.955Z,4.57
2023-05-05T04:19:04.007Z,4.09
2023-05-05T04:20:01.499Z,3.93
2023-05-05T04:20:58.965Z,3.98
2023-05-05T04:21:56.430Z,4.27
2023-05-05T04:22:53.799Z,3.94
2023-05-05T04:23:51.139Z,3.79
2023-05-05T04:24:48.434Z,3.60
2023-05-05T04:25:45.789Z,3.47
2023-05-05T04:26:43.084Z,3.37
2023-05-05T04:27:40.377Z,3.47
2023-05-05T04:28:37.687Z,3.77
2023-05-05T04:29:34.995Z,3.51
2023-05-05T04:30:32.478Z,3.89
2023-05-05T04:31:30.744Z,3.18
2023-05-05T04:32:28.287Z,3.94
2023-05-05T04:33:25.965Z,3.87
2023-05-05T04:34:23.257Z,3.50
2023-05-05T04:35:20.699Z,3.78
2023-05-05T04:36:19.191Z,3.46
2023-05-05T04:37:16.574Z,3.70
2023-05-05T04:38:13.842Z,3.17
2023-05-05T04:39:11.845Z,3.30
2023-05-05T04:40:09.561Z,3.73
2023-05-05T04:41:07.087Z,3.74
2023-05-05T04:42:04.410Z,3.33
2023-05-05T04:43:02.111Z,3.39
2023-05-05T04:43:59.443Z,3.22
2023-05-05T04:44:56.809Z,3.40
2023-05-05T04:45:55.405Z,3.26
2023-05-05T04:46:52.804Z,3.36
2023-05-05T04:47:50.202Z,3.30
2023-05-05T04:48:47.802Z,3.97
2023-05-05T04:49:45.204Z,2.97
2023-05-05T04:50:42.475Z,3.42
2023-05-05T04:51:42.812Z,3.36
2023-05-05T04:52:40.316Z,3.23
2023-05-05T04:53:37.714Z,3.13
2023-05-05T04:54:36.437Z,3.08
2023-05-05T04:55:33.767Z,3.09
2023-05-05T04:56:31.627Z,2.56
2023-05-05T04:57:30.626Z,2.86
2023-05-05T04:58:28.420Z,2.94
2023-05-05T04:59:25.849Z,2.69
2023-05-05T05:00:23.330Z,2.61
2023-05-05T05:01:20.850Z,2.71
2023-05-05T05:02:18.381Z,2.99
2023-05-05T05:03:15.855Z,2.57
2023-05-05T05:04:13.875Z,2.31
2023-05-05T05:05:11.270Z,2.99
2023-05-05T05:06:08.599Z,3.02
2023-05-05T05:07:05.922Z,2.77
2023-05-05T05:08:03.256Z,2.60
2023-05-05T05:09:00.618Z,2.45
2023-05-05T05:09:57.969Z,2.69
2023-05-05T05:10:55.317Z,2.91
2023-05-05T05:11:52.622Z,2.71
2023-05-05T05:12:50.115Z,2.95
2023-05-05T05:13:47.932Z,3.55
2023-05-05T05:14:45.247Z,3.86
2023-05-05T05:15:42.816Z,3.47
2023-05-05T05:16:40.191Z,3.48
2023-05-05T05:17:37.593Z,3.59
2023-05-05T05:18:35.101Z,3.47
2023-05-05T05:19:32.476Z,3.33
2023-05-05T05:20:30.431Z,3.81
2023-05-05T05:21:27.829Z,3.93
2023-05-05T05:22:25.108Z,3.87
2023-05-05T05:23:22.433Z,4.18
2023-05-05T05:24:19.771Z,3.80
2023-05-05T05:25:17.168Z,4.25
2023-05-05T05:26:14.508Z,3.88
2023-05-05T05:27:11.977Z,3.71
2023-05-05T05:28:10.715Z,3.90
2023-05-05T05:29:08.384Z,3.87
2023-05-05T05:30:06.270Z,3.65
2023-05-05T05:31:04.845Z,3.77
2023-05-05T05:32:02.226Z,3.83
2023-05-05T05:32:59.632Z,3.57
2023-05-05T05:33:57.240Z,3.84
2023-05-05T05:34:54.660Z,3.44
2023-05-05T05:35:51.960Z,3.50
2023-05-05T05:36:49.269Z,3.67
2023-05-05T05:37:47.727Z,3.42
2023-05-05T05:38:45.127Z,3.47
2023-05-05T05:39:43.756Z,3.57
2023-05-05T05:40:41.243Z,3.63
2023-05-05T05:41:38.596Z,3.54
2023-05-05T05:42:35.898Z,3.91
2023-05-05T05:43:33.300Z,3.39
2023-05-05T05:44:30.750Z,3.35
2023-05-05T05:45:28.118Z,3.63
2023-05-05T05:46:25.514Z,3.61
2023-05-05T05:47:23.879Z,4.14
2023-05-05T05:48:22.217Z,3.55
2023-05-05T05:49:19.515Z,4.06
2023-05-05T05:50:16.910Z,4.69
2023-05-05T05:51:14.218Z,3.97
2023-05-05T05:52:11.549Z,4.09
2023-05-05T05:53:08.925Z,4.37
2023-05-05T05:54:06.238Z,4.49
2023-05-05T05:55:03.661Z,4.51
2023-05-05T05:56:01.567Z,4.50
2023-05-05T05:56:58.928Z,4.76
2023-05-05T05:57:56.342Z,4.85
2023-05-05T05:58:53.751Z,4.96
2023-05-05T05:59:51.080Z,5.06
2023-05-05T06:00:48.663Z,5.26
2023-05-05T06:01:45.936Z,4.92
2023-05-05T06:02:43.306Z,4.99
2023-05-05T06:03:40.841Z,5.12
2023-05-05T06:04:38.270Z,5.11
2023-05-05T06:05:35.713Z,5.25
2023-05-05T06:06:32.984Z,4.62
2023-05-05T06:07:30.386Z,5.26
2023-05-05T06:08:27.745Z,4.84
2023-05-05T06:09:25.384Z,5.23
2023-05-05T06:10:27.840Z,5.47
2023-05-05T06:11:25.801Z,5.57
2023-05-05T06:12:23.102Z,5.12
2023-05-05T06:13:20.407Z,5.12
2023-05-05T06:14:18.873Z,4.36
2023-05-05T06:15:17.623Z,4.59
2023-05-05T06:16:14.958Z,4.87
2023-05-05T06:17:12.343Z,4.94
2023-05-05T06:18:10.461Z,4.97
2023-05-05T06:19:09.836Z,5.07
2023-05-05T06:20:07.663Z,4.97
2023-05-05T06:21:05.332Z,4.80
2023-05-05T06:22:02.713Z,5.15
2023-05-05T06:23:00.116Z,5.53
2023-05-05T06:23:57.486Z,5.42
2023-05-05T06:24:57.560Z,5.61
2023-05-05T06:25:56.162Z,5.63
2023-05-05T06:26:53.861Z,5.09
2023-05-05T06:27:51.287Z,5.04
2023-05-05T06:28:48.604Z,5.20
2023-05-05T06:29:45.959Z,4.76
2023-05-05T06:30:43.262Z,4.48
2023-05-05T06:31:40.696Z,4.51
2023-05-05T06:32:38.074Z,4.65
2023-05-05T06:33:35.634Z,4.44
2023-05-05T06:34:33.174Z,3.71
2023-05-05T06:35:30.582Z,3.97
2023-05-05T06:36:28.197Z,3.92
2023-05-05T06:37:25.610Z,3.83
2023-05-05T06:38:22.961Z,3.74
2023-05-05T06:39:20.287Z,3.88
2023-05-05T06:40:17.692Z,3.75
2023-05-05T06:41:15.034Z,3.53
2023-05-05T06:42:12.399Z,3.57
2023-05-05T06:43:09.765Z,3.75
2023-05-05T06:44:07.108Z,3.74
2023-05-05T06:45:04.546Z,3.61
2023-05-05T06:46:01.904Z,3.86
2023-05-05T06:46:59.321Z,4.07
2023-05-05T06:47:56.884Z,4.25
2023-05-05T06:48:54.806Z,4.23
2023-05-05T06:49:52.322Z,4.40
2023-05-05T06:50:49.654Z,4.09
2023-05-05T06:51:47.048Z,4.22
2023-05-05T06:52:44.535Z,4.03
2023-05-05T06:53:41.956Z,4.16
2023-05-05T06:54:39.244Z,4.13
2023-05-05T06:55:37.115Z,4.07
2023-05-05T06:56:34.423Z,3.89
2023-05-05T06:57:31.801Z,4.69
2023-05-05T06:58:29.144Z,4.02
2023-05-05T06:59:26.718Z,4.50
2023-05-05T07:00:24.517Z,4.12
2023-05-05T07:01:21.995Z,3.54
2023-05-05T07:02:19.323Z,3.45
2023-05-05T07:03:17.351Z,3.64
2023-05-05T07:04:14.862Z,3.87
2023-05-05T07:05:12.325Z,3.40
2023-05-05T07:06:09.805Z,3.38
2023-05-05T07:07:07.170Z,3.33
2023-05-05T07:08:04.844Z,3.78
2023-05-05T07:09:03.524Z,4.12
2023-05-05T07:10:01.079Z,3.82
2023-05-05T07:11:01.019Z,3.66
2023-05-05T07:11:58.750Z,3.11
2023-05-05T07:12:56.207Z,3.25
2023-05-05T07:13:53.607Z,3.56
2023-05-05T07:14:50.988Z,3.67
2023-05-05T07:15:48.367Z,3.42
2023-05-05T07:16:46.507Z,4.18
2023-05-05T07:17:44.046Z,3.64
2023-05-05T07:18:41.393Z,2.92
2023-05-05T07:19:38.790Z,2.94
2023-05-05T07:20:36.331Z,2.78
2023-05-05T07:21:34.253Z,2.93
2023-05-05T07:22:31.570Z,2.68
2023-05-05T07:23:28.890Z,2.50
2023-05-05T07:24:26.185Z,2.81
2023-05-05T07:25:23.557Z,2.76
2023-05-05T07:26:20.971Z,2.81
2023-05-05T07:27:18.370Z,2.85
2023-05-05T07:28:15.908Z,2.71
2023-05-05T07:29:13.234Z,2.28
2023-05-05T07:30:14.090Z,2.86
2023-05-05T07:31:13.836Z,2.68
2023-05-05T07:32:11.265Z,2.57
2023-05-05T07:33:08.590Z,2.75
2023-05-05T07:34:05.960Z,2.86
2023-05-05T07:35:03.634Z,2.69
2023-05-05T07:36:00.992Z,2.86
2023-05-05T07:36:58.403Z,2.56
2023-05-05T07:37:55.803Z,2.85
2023-05-05T07:38:53.367Z,2.94
2023-05-05T07:39:50.758Z,3.09
2023-05-05T07:40:48.173Z,2.78
2023-05-05T07:41:45.679Z,2.89
2023-05-05T07:42:43.011Z,2.70
2023-05-05T07:43:44.703Z,2.48
2023-05-05T07:44:42.183Z,2.62
2023-05-05T07:45:39.601Z,2.64
2023-05-05T07:46:37.151Z,2.36
2023-05-05T07:47:34.565Z,2.52
2023-05-05T07:48:31.935Z,2.87
2023-05-05T07:49:29.294Z,2.42
2023-05-05T07:50:27.153Z,2.94
2023-05-05T07:51:24.582Z,2.94
2023-05-05T07:52:33.216Z,3.20
2023-05-05T07:53:39.268Z,3.09
2023-05-05T07:54:36.914Z,2.89
2023-05-05T07:55:34.259Z,3.54
2023-05-05T07:56:31.623Z,3.63
2023-05-05T07:57:28.963Z,3.52
2023-05-05T07:58:26.269Z,3.56
2023-05-05T07:59:23.537Z,2.96
2023-05-05T08:00:21.797Z,3.22
2023-05-05T08:01:19.264Z,3.18
2023-05-05T08:02:16.579Z,3.18
2023-05-05T08:03:14.087Z,2.96
2023-05-05T08:04:11.640Z,2.70
2023-05-05T08:05:09.399Z,2.85
2023-05-05T08:06:11.331Z,3.26
2023-05-05T08:07:09.604Z,2.86
2023-05-05T08:08:07.060Z,3.13
2023-05-05T08:09:04.808Z,3.47
2023-05-05T08:10:02.115Z,3.03
2023-05-05T08:10:59.521Z,3.36
2023-05-05T08:11:56.853Z,2.95
2023-05-05T08:12:54.997Z,2.50
2023-05-05T08:13:52.336Z,2.65
2023-05-05T08:14:49.721Z,2.92
2023-05-05T08:15:47.371Z,3.02
2023-05-05T08:16:44.761Z,3.18
2023-05-05T08:17:46.066Z,2.99
2023-05-05T08:18:43.676Z,3.53
2023-05-05T08:19:41.040Z,3.42
2023-05-05T08:20:38.424Z,3.74
2023-05-05T08:21:35.736Z,3.61
2023-05-05T08:22:33.009Z,3.50
2023-05-05T08:23:30.294Z,3.66
2023-05-05T08:24:27.637Z,3.82
2023-05-05T08:25:27.022Z,4.15
2023-05-05T08:26:24.577Z,3.75
2023-05-05T08:27:21.898Z,3.67
2023-05-05T08:28:19.235Z,3.88
2023-05-05T08:29:16.533Z,4.06
2023-05-05T08:30:14.305Z,4.10
2023-05-05T08:31:11.785Z,4.19
2023-05-05T08:32:09.245Z,4.48
2023-05-05T08:33:06.905Z,4.48
2023-05-05T08:34:07.316Z,4.04
2023-05-05T08:35:05.314Z,4.09
2023-05-05T08:36:02.683Z,3.46
2023-05-05T08:37:00.014Z,3.34
2023-05-05T08:37:59.135Z,3.23
2023-05-05T08:38:57.084Z,3.33
2023-05-05T08:39:54.693Z,3.24
2023-05-05T08:40:52.912Z,3.55
2023-05-05T08:41:50.493Z,3.18
2023-05-05T08:42:47.844Z,3.36
2023-05-05T08:43:49.372Z,3.25
2023-05-05T08:44:46.752Z,3.00
2023-05-05T08:45:45.225Z,3.13
2023-05-05T08:46:42.912Z,3.08
2023-05-05T08:47:40.494Z,3.08
2023-05-05T08:48:39.527Z,3.07
2023-05-05T08:49:42.317Z,2.98
2023-05-05T08:50:40.350Z,3.42
2023-05-05T08:51:42.081Z,2.94
2023-05-05T08:52:40.847Z,3.14
2023-05-05T08:53:47.360Z,3.14
2023-05-05T08:54:51.442Z,3.44
2023-05-05T08:55:53.274Z,3.58
2023-05-05T08:56:51.714Z,3.62
2023-05-05T08:57:51.993Z,3.70
2023-05-05T08:58:51.004Z,3.44
2023-05-05T08:59:49.857Z,3.39
2023-05-05T09:00:47.245Z,3.62
2023-05-05T09:01:45.031Z,3.21
2023-05-05T09:02:42.992Z,3.75
2023-05-05T09:03:40.963Z,3.55
2023-05-05T09:04:38.364Z,3.53
2023-05-05T09:05:35.756Z,3.74
2023-05-05T09:06:33.867Z,3.69
2023-05-05T09:07:32.394Z,3.60
2023-05-05T09:08:29.908Z,3.86
2023-05-05T09:09:27.290Z,3.88
2023-05-05T09:10:26.175Z,3.96
2023-05-05T09:11:23.556Z,3.52
2023-05-05T09:12:21.983Z,3.59
2023-05-05T09:13:19.432Z,3.33
2023-05-05T09:14:16.784Z,3.75
2023-05-05T09:15:15.255Z,3.68
2023-05-05T09:16:12.764Z,3.45
2023-05-05T09:17:22.230Z,3.50
2023-05-05T09:18:19.625Z,3.48
2023-05-05T09:19:16.992Z,3.69
2023-05-05T09:20:14.942Z,3.39
2023-05-05T09:21:21.994Z,3.24
2023-05-05T09:22:32.787Z,3.28
2023-05-05T09:23:30.170Z,3.29
2023-05-05T09:24:27.495Z,3.46
2023-05-05T09:25:24.905Z,3.66
2023-05-05T09:26:23.208Z,3.46
2023-05-05T09:27:23.509Z,3.39
2023-05-05T09:28:20.868Z,3.61
2023-05-05T09:29:22.127Z,3.34
2023-05-05T09:30:27.022Z,3.71
2023-05-05T09:31:24.417Z,3.30
2023-05-05T09:32:22.417Z,3.28
2023-05-05T09:33:30.533Z,2.80
2023-05-05T09:34:27.846Z,2.80
2023-05-05T09:35:25.765Z,2.86
2023-05-05T09:36:42.060Z,2.77
2023-05-05T09:37:39.456Z,3.15
2023-05-05T09:38:36.909Z,2.72
2023-05-05T09:39:34.226Z,2.88
2023-05-05T09:40:44.334Z,3.28
2023-05-05T09:41:43.714Z,3.44
2023-05-05T09:42:41.212Z,3.68
2023-05-05T09:43:51.946Z,3.93
2023-05-05T09:44:49.409Z,3.50
2023-05-05T09:45:48.769Z,3.42
2023-05-05T09:46:51.114Z,3.28
2023-05-05T09:47:49.455Z,3.32
2023-05-05T09:48:46.996Z,3.15
2023-05-05T09:49:44.360Z,3.08
2023-05-05T09:50:44.731Z,3.18
2023-05-05T09:51:42.318Z,3.19
2023-05-05T09:52:39.716Z,2.95
2023-05-05T09:53:41.611Z,2.80
2023-05-05T09:54:39.031Z,2.92
2023-05-05T09:55:36.483Z,2.56
2023-05-05T09:56:37.820Z,2.59
2023-05-05T09:57:35.165Z,2.56
2023-05-05T09:58:32.644Z,2.60
2023-05-05T09:59:30.047Z,2.75
2023-05-05T10:00:39.704Z,2.64
2023-05-05T10:01:37.745Z,2.67
2023-05-05T10:02:36.192Z,2.73
2023-05-05T10:03:33.569Z,2.66
2023-05-05T10:04:31.525Z,2.83
2023-05-05T10:05:29.030Z,2.82
2023-05-05T10:06:47.061Z,2.63
2023-05-05T10:07:45.813Z,2.63
2023-05-05T10:08:43.205Z,2.97
2023-05-05T10:09:40.570Z,2.88
2023-05-05T10:10:46.097Z,2.69
2023-05-05T10:11:46.108Z,2.71
2023-05-05T10:12:45.981Z,2.55
2023-05-05T10:13:43.510Z,2.65
2023-05-05T10:14:41.601Z,2.84
2023-05-05T10:15:39.610Z,2.68
2023-05-05T10:16:42.734Z,2.59
2023-05-05T10:18:51.479Z,2.63
2023-05-05T10:19:55.218Z,2.67
2023-05-05T10:20:57.236Z,2.63
2023-05-05T10:22:00.839Z,2.82
2023-05-05T10:23:02.727Z,2.50
2023-05-05T10:24:17.003Z,2.41
2023-05-05T10:25:16.037Z,3.01
2023-05-05T10:26:14.098Z,3.52
2023-05-05T10:27:23.469Z,3.53
2023-05-05T10:28:28.452Z,2.93
2023-05-05T10:29:25.995Z,2.79
2023-05-05T10:30:24.504Z,2.91
2023-05-05T10:31:29.253Z,2.96
2023-05-05T10:33:40.071Z,2.20
2023-05-05T10:35:07.107Z,2.86
2023-05-05T10:36:06.588Z,2.62
2023-05-05T10:37:05.045Z,2.71
2023-05-05T10:38:03.858Z,2.53
2023-05-05T10:39:02.783Z,2.65
2023-05-05T10:40:01.426Z,2.97
2023-05-05T10:40:59.754Z,2.91
2023-05-05T10:42:01.574Z,2.91
2023-05-05T10:42:59.190Z,2.70
2023-05-05T10:44:00.444Z,2.87
2023-05-05T10:44:58.774Z,2.93
2023-05-05T10:45:56.946Z,2.45
2023-05-05T10:46:54.537Z,2.74
2023-05-05T10:47:54.088Z,2.63
2023-05-05T10:48:58.648Z,2.87
2023-05-05T10:50:16.696Z,2.69
2023-05-05T10:51:49.268Z,2.38
2023-05-05T10:52:55.696Z,2.66
2023-05-05T10:54:11.528Z,2.76
2023-05-05T10:55:17.638Z,2.76
2023-05-05T10:56:21.402Z,2.69
2023-05-05T10:57:22.884Z,2.83
2023-05-05T10:58:36.655Z,2.71
2023-05-05T10:59:42.303Z,2.83
2023-05-05T11:00:39.741Z,2.39
2023-05-05T11:01:37.201Z,2.52
2023-05-05T11:02:36.080Z,2.59
2023-05-05T11:03:34.113Z,2.44
2023-05-05T11:04:31.557Z,2.57
2023-05-05T11:05:28.884Z,2.85
2023-05-05T11:06:26.246Z,2.65
2023-05-05T11:07:24.228Z,2.57
2023-05-05T11:08:25.630Z,2.76
2023-05-05T11:09:28.013Z,3.05
2023-05-05T11:10:25.376Z,2.67
2023-05-05T11:11:42.676Z,2.60
2023-05-05T11:12:52.305Z,2.88
2023-05-05T11:14:09.704Z,2.83
2023-05-05T11:15:25.593Z,2.91
2023-05-05T11:16:43.828Z,2.87
2023-05-05T11:17:45.492Z,2.66
2023-05-05T11:18:45.487Z,2.67
2023-05-05T11:19:43.045Z,2.68
2023-05-05T11:20:44.519Z,2.79
2023-05-05T11:22:01.075Z,2.51
2023-05-05T11:23:04.403Z,2.59
2023-05-05T11:24:22.158Z,2.95
2023-05-05T11:25:45.574Z,2.67
2023-05-05T11:26:52.873Z,2.64
2023-05-05T11:28:05.526Z,2.59
2023-05-05T11:29:04.733Z,2.87
2023-05-05T11:30:06.875Z,3.01
2023-05-05T11:31:04.442Z,2.77
2023-05-05T11:32:11.126Z,2.79
2023-05-05T11:33:25.093Z,2.66
2023-05-05T11:34:28.471Z,3.00
2023-05-05T11:35:45.847Z,2.44
2023-05-05T11:36:44.831Z,2.46
2023-05-05T11:37:42.443Z,2.77
2023-05-05T11:38:48.778Z,2.67
2023-05-05T11:39:52.256Z,2.55
2023-05-05T11:40:50.566Z,2.67
2023-05-05T11:41:47.835Z,2.35
2023-05-05T11:42:45.267Z,2.30
2023-05-05T11:43:42.851Z,2.43
2023-05-05T11:44:41.343Z,2.58
2023-05-05T11:45:38.758Z,2.49
2023-05-05T11:46:36.384Z,2.34
2023-05-05T11:47:34.047Z,2.35
2023-05-05T11:48:31.439Z,2.64
2023-05-05T11:49:33.059Z,2.55
2023-05-05T11:50:33.062Z,2.70
2023-05-05T11:51:31.650Z,2.66
2023-05-05T11:52:29.117Z,2.32
2023-05-05T11:53:27.613Z,2.53
2023-05-05T11:54:25.465Z,2.46
2023-05-05T11:55:23.097Z,2.87
2023-05-05T11:56:22.281Z,2.85
2023-05-05T11:57:21.842Z,2.62
2023-05-05T11:58:19.620Z,2.56
2023-05-05T11:59:16.920Z,2.28
2023-05-05T12:00:14.598Z,2.56
2023-05-05T12:01:13.237Z,2.45
2023-05-05T12:02:10.787Z,2.37
2023-05-05T12:03:08.878Z,2.01
2023-05-05T12:04:06.614Z,2.43
2023-05-05T12:05:04.299Z,2.39
2023-05-05T12:06:02.197Z,2.45
2023-05-05T12:07:00.054Z,2.63
2023-05-05T12:07:58.514Z,2.27
2023-05-05T12:08:56.074Z,2.54
2023-05-05T12:09:53.556Z,2.66
2023-05-05T12:10:50.923Z,2.66
2023-05-05T12:11:58.440Z,2.80
2023-05-05T12:12:56.123Z,2.63
2023-05-05T12:14:11.952Z,2.34
2023-05-05T12:15:09.458Z,2.21
2023-05-05T12:16:10.579Z,2.31
2023-05-05T12:17:11.120Z,2.44
2023-05-05T12:18:17.952Z,2.35
2023-05-05T12:19:15.933Z,2.41
2023-05-05T12:20:13.481Z,2.54
2023-05-05T12:21:18.067Z,2.46
2023-05-05T12:22:20.355Z,2.43
2023-05-05T12:23:18.078Z,2.56
2023-05-05T12:24:16.216Z,2.47
2023-05-05T12:25:13.607Z,2.48
2023-05-05T12:26:28.021Z,2.36
2023-05-05T12:27:26.774Z,2.56
2023-05-05T12:28:24.098Z,2.40
2023-05-05T12:29:29.210Z,2.72
2023-05-05T12:30:26.554Z,2.33
2023-05-05T12:31:33.889Z,2.62
2023-05-05T12:32:32.561Z,2.47
2023-05-05T12:33:30.022Z,2.44
2023-05-05T12:34:27.902Z,2.68
2023-05-05T12:35:25.290Z,2.54
2023-05-05T12:36:22.703Z,2.50
2023-05-05T12:37:20.761Z,2.55
2023-05-05T12:38:18.091Z,2.51
2023-05-05T12:39:15.596Z,2.41
2023-05-05T12:40:31.652Z,2.36
2023-05-05T12:41:29.128Z,2.55
2023-05-05T12:42:26.516Z,2.60
2023-05-05T12:43:24.597Z,2.42
2023-05-05T12:44:22.172Z,2.42
2023-05-05T12:45:19.616Z,2.68
2023-05-05T12:46:17.503Z,2.61
2023-05-05T12:47:15.608Z,2.74
2023-05-05T12:48:22.417Z,2.53
2023-05-05T12:49:19.730Z,2.33
2023-05-05T12:50:29.162Z,2.48
2023-05-05T12:51:27.152Z,2.41
2023-05-05T12:52:24.479Z,2.64
2023-05-05T12:53:22.483Z,2.34
2023-05-05T12:54:19.788Z,2.37
2023-05-05T12:55:17.152Z,2.45
2023-05-05T12:56:33.144Z,2.76
2023-05-05T12:57:30.511Z,2.75
2023-05-05T12:58:29.147Z,2.55
2023-05-05T12:59:27.503Z,2.57
2023-05-05T13:00:25.161Z,2.51
2023-05-05T13:01:22.479Z,2.33
2023-05-05T13:02:20.986Z,2.26
2023-05-05T13:03:19.491Z,2.47
2023-05-05T13:04:17.568Z,2.49
2023-05-05T13:05:15.076Z,2.55
2023-05-05T13:06:22.125Z,2.66
2023-05-05T13:07:20.837Z,2.60
2023-05-05T13:08:18.594Z,2.73
2023-05-05T13:09:26.626Z,2.84
2023-05-05T13:10:25.109Z,2.36
2023-05-05T13:11:22.414Z,2.62
2023-05-05T13:12:20.801Z,2.65
2023-05-05T13:13:19.181Z,2.52
2023-05-05T13:14:16.657Z,2.24
2023-05-05T13:15:14.198Z,2.62
2023-05-05T13:16:11.538Z,2.80